sensor_id;sensor_type;location;lat;lon;timestamp;P1;durP1;ratioP1;P2;durP2;ratioP2
43363;SDS011;40636;52.424;-1.948;2023-06-10T00:01:15;13.98;;;5.75;;
43363;SDS011;40636;52.424;-1.948;2023-06-10T00:03:43;9.63;;;5.60;;
43363;SDS011;40636;52.424;-1.948;2023-06-10T00:06:10;16.55;;;6.38;;
43363;SDS011;40636;52.424;-1.948;2023-06-10T00:08:38;9.88;;;5.63;;
43363;SDS011;40636;52.424;-1.948;2023-06-10T00:11:06;13.07;;;5.95;;
43363;SDS011;40636;52.424;-1.948;2023-06-10T00:13:33;12.25;;;5.65;;
43363;SDS011;40636;52.424;-1.948;2023-06-10T00:15:59;12.00;;;6.32;;
43363;SDS011;40636;52.424;-1.948;2023-06-10T00:18:26;14.32;;;6.63;;
43363;SDS011;40636;52.424;-1.948;2023-06-10T00:20:53;19.45;;;7.03;;
43363;SDS011;40636;52.424;-1.948;2023-06-10T00:23:21;10.23;;;6.65;;
43363;SDS011;40636;52.424;-1.948;2023-06-10T00:25:49;20.20;;;8.50;;
43363;SDS011;40636;52.424;-1.948;2023-06-10T00:28:15;14.10;;;7.60;;
43363;SDS011;40636;52.424;-1.948;2023-06-10T00:30:42;14.77;;;7.43;;
43363;SDS011;40636;52.424;-1.948;2023-06-10T00:33:09;17.52;;;9.00;;
43363;SDS011;40636;52.424;-1.948;2023-06-10T00:35:36;14.82;;;8.23;;
43363;SDS011;40636;52.424;-1.948;2023-06-10T00:38:03;15.63;;;7.40;;
43363;SDS011;40636;52.424;-1.948;2023-06-10T00:40:30;16.02;;;8.50;;
43363;SDS011;40636;52.424;-1.948;2023-06-10T00:42:57;18.05;;;8.43;;
43363;SDS011;40636;52.424;-1.948;2023-06-10T00:45:24;18.20;;;8.23;;
43363;SDS011;40636;52.424;-1.948;2023-06-10T00:47:51;15.88;;;8.40;;
43363;SDS011;40636;52.424;-1.948;2023-06-10T00:50:18;22.15;;;10.00;;
43363;SDS011;40636;52.424;-1.948;2023-06-10T00:52:44;17.95;;;8.38;;
43363;SDS011;40636;52.424;-1.948;2023-06-10T00:55:16;22.88;;;9.80;;
43363;SDS011;40636;52.424;-1.948;2023-06-10T00:57:44;16.60;;;9.05;;
43363;SDS011;40636;52.424;-1.948;2023-06-10T01:00:12;21.58;;;8.93;;
43363;SDS011;40636;52.424;-1.948;2023-06-10T01:02:40;19.75;;;9.35;;
43363;SDS011;40636;52.424;-1.948;2023-06-10T01:05:07;20.58;;;11.77;;
43363;SDS011;40636;52.424;-1.948;2023-06-10T01:12:41;19.30;;;10.65;;
43363;SDS011;40636;52.424;-1.948;2023-06-10T01:15:16;20.85;;;9.60;;
43363;SDS011;40636;52.424;-1.948;2023-06-10T01:20:42;16.73;;;8.95;;
43363;SDS011;40636;52.424;-1.948;2023-06-10T01:23:10;19.15;;;9.68;;
43363;SDS011;40636;52.424;-1.948;2023-06-10T01:25:38;17.92;;;9.43;;
43363;SDS011;40636;52.424;-1.948;2023-06-10T01:30:39;17.13;;;8.95;;
43363;SDS011;40636;52.424;-1.948;2023-06-10T01:33:10;21.98;;;9.90;;
43363;SDS011;40636;52.424;-1.948;2023-06-10T01:35:40;17.77;;;10.88;;
43363;SDS011;40636;52.424;-1.948;2023-06-10T01:38:07;22.60;;;10.75;;
43363;SDS011;40636;52.424;-1.948;2023-06-10T01:40:34;21.17;;;9.40;;
43363;SDS011;40636;52.424;-1.948;2023-06-10T01:43:03;19.95;;;10.80;;
43363;SDS011;40636;52.424;-1.948;2023-06-10T01:45:30;14.07;;;9.32;;
43363;SDS011;40636;52.424;-1.948;2023-06-10T01:47:56;25.20;;;11.95;;
43363;SDS011;40636;52.424;-1.948;2023-06-10T01:50:23;23.05;;;11.70;;
43363;SDS011;40636;52.424;-1.948;2023-06-10T01:52:50;23.50;;;10.30;;
43363;SDS011;40636;52.424;-1.948;2023-06-10T01:55:17;24.27;;;10.80;;
43363;SDS011;40636;52.424;-1.948;2023-06-10T01:57:44;15.45;;;10.15;;
43363;SDS011;40636;52.424;-1.948;2023-06-10T02:00:11;20.48;;;11.13;;
43363;SDS011;40636;52.424;-1.948;2023-06-10T02:02:39;18.00;;;9.55;;
43363;SDS011;40636;52.424;-1.948;2023-06-10T02:05:06;19.98;;;10.27;;
43363;SDS011;40636;52.424;-1.948;2023-06-10T02:07:34;18.50;;;9.63;;
43363;SDS011;40636;52.424;-1.948;2023-06-10T02:10:01;18.48;;;9.90;;
43363;SDS011;40636;52.424;-1.948;2023-06-10T02:12:28;17.13;;;9.50;;
43363;SDS011;40636;52.424;-1.948;2023-06-10T02:14:54;23.67;;;10.98;;
43363;SDS011;40636;52.424;-1.948;2023-06-10T02:17:21;24.30;;;10.18;;
43363;SDS011;40636;52.424;-1.948;2023-06-10T02:19:49;22.17;;;9.82;;
43363;SDS011;40636;52.424;-1.948;2023-06-10T02:22:22;21.73;;;9.85;;
43363;SDS011;40636;52.424;-1.948;2023-06-10T02:24:49;23.45;;;11.07;;
43363;SDS011;40636;52.424;-1.948;2023-06-10T02:27:16;18.60;;;9.75;;
43363;SDS011;40636;52.424;-1.948;2023-06-10T02:29:44;23.38;;;10.77;;
43363;SDS011;40636;52.424;-1.948;2023-06-10T02:32:11;19.48;;;10.23;;
43363;SDS011;40636;52.424;-1.948;2023-06-10T02:34:38;21.83;;;10.07;;
43363;SDS011;40636;52.424;-1.948;2023-06-10T02:37:05;20.60;;;10.98;;
43363;SDS011;40636;52.424;-1.948;2023-06-10T02:39:32;37.97;;;11.63;;
43363;SDS011;40636;52.424;-1.948;2023-06-10T02:41:59;23.45;;;10.32;;
43363;SDS011;40636;52.424;-1.948;2023-06-10T02:44:26;22.88;;;12.55;;
43363;SDS011;40636;52.424;-1.948;2023-06-10T02:46:54;22.67;;;11.80;;
43363;SDS011;40636;52.424;-1.948;2023-06-10T02:49:20;27.15;;;10.18;;
43363;SDS011;40636;52.424;-1.948;2023-06-10T02:51:47;17.00;;;10.05;;
43363;SDS011;40636;52.424;-1.948;2023-06-10T02:54:20;24.58;;;10.63;;
43363;SDS011;40636;52.424;-1.948;2023-06-10T02:56:47;24.33;;;11.88;;
43363;SDS011;40636;52.424;-1.948;2023-06-10T02:59:14;25.02;;;11.98;;
43363;SDS011;40636;52.424;-1.948;2023-06-10T03:01:41;20.38;;;11.50;;
43363;SDS011;40636;52.424;-1.948;2023-06-10T03:04:09;26.00;;;14.15;;
43363;SDS011;40636;52.424;-1.948;2023-06-10T03:06:36;25.52;;;14.55;;
43363;SDS011;40636;52.424;-1.948;2023-06-10T03:09:04;25.17;;;13.60;;
43363;SDS011;40636;52.424;-1.948;2023-06-10T03:11:31;35.75;;;14.35;;
43363;SDS011;40636;52.424;-1.948;2023-06-10T03:13:58;21.85;;;12.85;;
43363;SDS011;40636;52.424;-1.948;2023-06-10T03:16:26;26.80;;;14.20;;
43363;SDS011;40636;52.424;-1.948;2023-06-10T03:18:54;25.10;;;14.23;;
43363;SDS011;40636;52.424;-1.948;2023-06-10T03:21:21;29.42;;;14.82;;
43363;SDS011;40636;52.424;-1.948;2023-06-10T03:23:48;24.10;;;13.70;;
43363;SDS011;40636;52.424;-1.948;2023-06-10T03:26:14;29.92;;;14.65;;
43363;SDS011;40636;52.424;-1.948;2023-06-10T03:28:42;25.00;;;13.23;;
43363;SDS011;40636;52.424;-1.948;2023-06-10T03:31:08;24.23;;;14.20;;
43363;SDS011;40636;52.424;-1.948;2023-06-10T03:33:36;29.55;;;14.70;;
43363;SDS011;40636;52.424;-1.948;2023-06-10T03:36:03;34.47;;;14.70;;
43363;SDS011;40636;52.424;-1.948;2023-06-10T03:38:31;32.70;;;17.15;;
43363;SDS011;40636;52.424;-1.948;2023-06-10T03:40:57;42.20;;;17.70;;
43363;SDS011;40636;52.424;-1.948;2023-06-10T03:43:24;26.70;;;14.90;;
43363;SDS011;40636;52.424;-1.948;2023-06-10T03:45:51;29.77;;;15.43;;
43363;SDS011;40636;52.424;-1.948;2023-06-10T03:48:18;27.10;;;14.02;;
43363;SDS011;40636;52.424;-1.948;2023-06-10T03:50:45;33.60;;;15.00;;
43363;SDS011;40636;52.424;-1.948;2023-06-10T03:53:14;27.73;;;12.93;;
43363;SDS011;40636;52.424;-1.948;2023-06-10T03:55:40;29.38;;;14.10;;
43363;SDS011;40636;52.424;-1.948;2023-06-10T03:58:08;29.58;;;15.82;;
43363;SDS011;40636;52.424;-1.948;2023-06-10T04:00:34;23.75;;;13.55;;
43363;SDS011;40636;52.424;-1.948;2023-06-10T04:03:08;27.50;;;14.10;;
43363;SDS011;40636;52.424;-1.948;2023-06-10T04:05:36;23.50;;;13.52;;
43363;SDS011;40636;52.424;-1.948;2023-06-10T04:08:02;29.10;;;13.15;;
43363;SDS011;40636;52.424;-1.948;2023-06-10T04:10:29;24.45;;;12.73;;
43363;SDS011;40636;52.424;-1.948;2023-06-10T04:12:56;29.25;;;13.65;;
43363;SDS011;40636;52.424;-1.948;2023-06-10T04:15:23;27.73;;;14.15;;
43363;SDS011;40636;52.424;-1.948;2023-06-10T04:17:50;23.80;;;14.27;;
43363;SDS011;40636;52.424;-1.948;2023-06-10T04:20:17;23.10;;;13.73;;
43363;SDS011;40636;52.424;-1.948;2023-06-10T04:22:44;33.92;;;13.57;;
43363;SDS011;40636;52.424;-1.948;2023-06-10T04:25:11;30.75;;;13.00;;
43363;SDS011;40636;52.424;-1.948;2023-06-10T04:27:38;26.73;;;13.60;;
43363;SDS011;40636;52.424;-1.948;2023-06-10T04:30:05;24.63;;;15.13;;
43363;SDS011;40636;52.424;-1.948;2023-06-10T04:32:32;26.27;;;13.13;;
43363;SDS011;40636;52.424;-1.948;2023-06-10T04:34:59;25.42;;;13.65;;
43363;SDS011;40636;52.424;-1.948;2023-06-10T04:37:26;34.95;;;15.32;;
43363;SDS011;40636;52.424;-1.948;2023-06-10T04:39:55;25.20;;;13.88;;
43363;SDS011;40636;52.424;-1.948;2023-06-10T04:42:23;38.47;;;15.98;;
43363;SDS011;40636;52.424;-1.948;2023-06-10T04:44:50;32.40;;;15.45;;
43363;SDS011;40636;52.424;-1.948;2023-06-10T04:47:17;31.25;;;15.52;;
43363;SDS011;40636;52.424;-1.948;2023-06-10T04:49:44;33.17;;;16.00;;
43363;SDS011;40636;52.424;-1.948;2023-06-10T04:52:11;27.70;;;14.65;;
43363;SDS011;40636;52.424;-1.948;2023-06-10T04:54:44;33.22;;;16.02;;
43363;SDS011;40636;52.424;-1.948;2023-06-10T04:57:11;31.35;;;15.45;;
43363;SDS011;40636;52.424;-1.948;2023-06-10T04:59:37;38.53;;;16.80;;
43363;SDS011;40636;52.424;-1.948;2023-06-10T05:02:04;26.90;;;15.52;;
43363;SDS011;40636;52.424;-1.948;2023-06-10T05:04:31;34.10;;;15.38;;
43363;SDS011;40636;52.424;-1.948;2023-06-10T05:06:58;33.97;;;16.25;;
43363;SDS011;40636;52.424;-1.948;2023-06-10T05:09:25;40.25;;;16.35;;
43363;SDS011;40636;52.424;-1.948;2023-06-10T05:11:52;33.03;;;15.30;;
43363;SDS011;40636;52.424;-1.948;2023-06-10T05:14:20;35.75;;;15.35;;
43363;SDS011;40636;52.424;-1.948;2023-06-10T05:16:47;31.00;;;14.15;;
43363;SDS011;40636;52.424;-1.948;2023-06-10T05:19:15;28.38;;;14.07;;
43363;SDS011;40636;52.424;-1.948;2023-06-10T05:21:44;34.72;;;14.95;;
43363;SDS011;40636;52.424;-1.948;2023-06-10T05:24:11;31.20;;;15.23;;
43363;SDS011;40636;52.424;-1.948;2023-06-10T05:26:38;30.67;;;14.70;;
43363;SDS011;40636;52.424;-1.948;2023-06-10T05:29:05;37.25;;;15.48;;
43363;SDS011;40636;52.424;-1.948;2023-06-10T05:31:32;30.42;;;13.85;;
43363;SDS011;40636;52.424;-1.948;2023-06-10T05:33:59;26.05;;;13.27;;
43363;SDS011;40636;52.424;-1.948;2023-06-10T05:36:26;34.17;;;15.80;;
43363;SDS011;40636;52.424;-1.948;2023-06-10T05:38:53;32.00;;;15.23;;
43363;SDS011;40636;52.424;-1.948;2023-06-10T05:41:20;34.50;;;15.40;;
43363;SDS011;40636;52.424;-1.948;2023-06-10T05:43:48;32.17;;;15.82;;
43363;SDS011;40636;52.424;-1.948;2023-06-10T05:46:15;33.90;;;14.57;;
43363;SDS011;40636;52.424;-1.948;2023-06-10T05:48:42;33.10;;;15.05;;
43363;SDS011;40636;52.424;-1.948;2023-06-10T05:51:09;28.23;;;14.73;;
43363;SDS011;40636;52.424;-1.948;2023-06-10T05:53:36;33.13;;;15.90;;
43363;SDS011;40636;52.424;-1.948;2023-06-10T05:56:04;36.95;;;13.90;;
43363;SDS011;40636;52.424;-1.948;2023-06-10T05:58:31;38.55;;;14.80;;
43363;SDS011;40636;52.424;-1.948;2023-06-10T06:00:58;31.90;;;16.33;;
43363;SDS011;40636;52.424;-1.948;2023-06-10T06:03:26;30.38;;;14.68;;
43363;SDS011;40636;52.424;-1.948;2023-06-10T06:05:55;34.53;;;16.40;;
43363;SDS011;40636;52.424;-1.948;2023-06-10T06:08:22;29.13;;;15.40;;
43363;SDS011;40636;52.424;-1.948;2023-06-10T06:10:49;29.92;;;14.88;;
43363;SDS011;40636;52.424;-1.948;2023-06-10T06:13:16;28.88;;;15.88;;
43363;SDS011;40636;52.424;-1.948;2023-06-10T06:15:43;27.35;;;13.75;;
43363;SDS011;40636;52.424;-1.948;2023-06-10T06:18:10;27.05;;;15.48;;
43363;SDS011;40636;52.424;-1.948;2023-06-10T06:20:37;35.60;;;15.07;;
43363;SDS011;40636;52.424;-1.948;2023-06-10T06:23:03;31.83;;;13.57;;
43363;SDS011;40636;52.424;-1.948;2023-06-10T06:25:30;26.83;;;15.00;;
43363;SDS011;40636;52.424;-1.948;2023-06-10T06:27:57;29.23;;;14.80;;
43363;SDS011;40636;52.424;-1.948;2023-06-10T06:30:24;29.77;;;15.45;;
43363;SDS011;40636;52.424;-1.948;2023-06-10T06:32:51;27.90;;;14.40;;
43363;SDS011;40636;52.424;-1.948;2023-06-10T06:35:18;27.52;;;13.80;;
43363;SDS011;40636;52.424;-1.948;2023-06-10T06:37:45;25.10;;;13.75;;
43363;SDS011;40636;52.424;-1.948;2023-06-10T06:40:12;27.42;;;14.48;;
43363;SDS011;40636;52.424;-1.948;2023-06-10T06:42:39;28.02;;;14.05;;
43363;SDS011;40636;52.424;-1.948;2023-06-10T06:45:06;32.05;;;13.93;;
43363;SDS011;40636;52.424;-1.948;2023-06-10T06:47:33;28.17;;;13.88;;
43363;SDS011;40636;52.424;-1.948;2023-06-10T06:50:00;35.28;;;15.00;;
43363;SDS011;40636;52.424;-1.948;2023-06-10T06:52:28;31.55;;;14.05;;
43363;SDS011;40636;52.424;-1.948;2023-06-10T06:54:55;26.05;;;14.43;;
43363;SDS011;40636;52.424;-1.948;2023-06-10T06:57:21;26.48;;;14.48;;
43363;SDS011;40636;52.424;-1.948;2023-06-10T06:59:49;26.75;;;13.23;;
43363;SDS011;40636;52.424;-1.948;2023-06-10T07:02:16;27.60;;;14.48;;
43363;SDS011;40636;52.424;-1.948;2023-06-10T07:04:43;25.75;;;12.73;;
43363;SDS011;40636;52.424;-1.948;2023-06-10T07:07:10;22.15;;;12.98;;
43363;SDS011;40636;52.424;-1.948;2023-06-10T07:09:37;26.33;;;12.93;;
43363;SDS011;40636;52.424;-1.948;2023-06-10T07:12:04;28.25;;;12.82;;
43363;SDS011;40636;52.424;-1.948;2023-06-10T07:14:32;30.55;;;14.10;;
43363;SDS011;40636;52.424;-1.948;2023-06-10T07:16:58;24.83;;;12.07;;
43363;SDS011;40636;52.424;-1.948;2023-06-10T07:19:25;30.50;;;14.75;;
43363;SDS011;40636;52.424;-1.948;2023-06-10T07:21:52;29.10;;;13.02;;
43363;SDS011;40636;52.424;-1.948;2023-06-10T07:24:19;24.77;;;11.82;;
43363;SDS011;40636;52.424;-1.948;2023-06-10T07:26:47;23.95;;;12.60;;
43363;SDS011;40636;52.424;-1.948;2023-06-10T07:29:13;29.58;;;14.48;;
43363;SDS011;40636;52.424;-1.948;2023-06-10T07:31:40;22.48;;;12.07;;
43363;SDS011;40636;52.424;-1.948;2023-06-10T07:34:08;28.70;;;13.02;;
43363;SDS011;40636;52.424;-1.948;2023-06-10T07:36:34;26.60;;;13.55;;
43363;SDS011;40636;52.424;-1.948;2023-06-10T07:39:02;24.20;;;13.00;;
43363;SDS011;40636;52.424;-1.948;2023-06-10T07:41:29;25.85;;;12.63;;
43363;SDS011;40636;52.424;-1.948;2023-06-10T07:43:56;25.67;;;13.00;;
43363;SDS011;40636;52.424;-1.948;2023-06-10T07:46:23;30.95;;;14.02;;
43363;SDS011;40636;52.424;-1.948;2023-06-10T07:48:51;27.63;;;13.77;;
43363;SDS011;40636;52.424;-1.948;2023-06-10T07:51:18;24.65;;;13.05;;
43363;SDS011;40636;52.424;-1.948;2023-06-10T07:53:44;26.65;;;12.30;;
43363;SDS011;40636;52.424;-1.948;2023-06-10T07:56:11;29.90;;;13.15;;
43363;SDS011;40636;52.424;-1.948;2023-06-10T07:58:38;24.95;;;13.18;;
43363;SDS011;40636;52.424;-1.948;2023-06-10T08:01:05;24.35;;;12.77;;
43363;SDS011;40636;52.424;-1.948;2023-06-10T08:03:32;27.52;;;12.00;;
43363;SDS011;40636;52.424;-1.948;2023-06-10T08:05:59;26.00;;;12.63;;
43363;SDS011;40636;52.424;-1.948;2023-06-10T08:08:26;32.75;;;13.48;;
43363;SDS011;40636;52.424;-1.948;2023-06-10T08:10:53;22.02;;;12.30;;
43363;SDS011;40636;52.424;-1.948;2023-06-10T08:13:21;23.50;;;12.00;;
43363;SDS011;40636;52.424;-1.948;2023-06-10T08:15:48;24.55;;;11.52;;
43363;SDS011;40636;52.424;-1.948;2023-06-10T08:18:17;24.02;;;13.25;;
43363;SDS011;40636;52.424;-1.948;2023-06-10T08:20:43;27.42;;;11.00;;
43363;SDS011;40636;52.424;-1.948;2023-06-10T08:23:10;31.45;;;12.35;;
43363;SDS011;40636;52.424;-1.948;2023-06-10T08:25:37;20.52;;;11.77;;
43363;SDS011;40636;52.424;-1.948;2023-06-10T08:28:04;25.25;;;11.85;;
43363;SDS011;40636;52.424;-1.948;2023-06-10T08:30:31;27.02;;;12.85;;
43363;SDS011;40636;52.424;-1.948;2023-06-10T08:32:58;23.30;;;11.70;;
43363;SDS011;40636;52.424;-1.948;2023-06-10T08:35:26;24.15;;;11.85;;
43363;SDS011;40636;52.424;-1.948;2023-06-10T08:37:53;21.55;;;11.27;;
43363;SDS011;40636;52.424;-1.948;2023-06-10T08:40:19;26.95;;;12.82;;
43363;SDS011;40636;52.424;-1.948;2023-06-10T08:42:54;22.30;;;12.38;;
43363;SDS011;40636;52.424;-1.948;2023-06-10T08:45:35;21.95;;;11.50;;
43363;SDS011;40636;52.424;-1.948;2023-06-10T08:48:03;22.95;;;11.82;;
43363;SDS011;40636;52.424;-1.948;2023-06-10T08:50:35;25.35;;;12.73;;
43363;SDS011;40636;52.424;-1.948;2023-06-10T08:53:04;23.98;;;11.95;;
43363;SDS011;40636;52.424;-1.948;2023-06-10T08:55:33;23.85;;;11.73;;
43363;SDS011;40636;52.424;-1.948;2023-06-10T08:58:04;23.33;;;11.30;;
43363;SDS011;40636;52.424;-1.948;2023-06-10T09:00:31;22.60;;;10.82;;
43363;SDS011;40636;52.424;-1.948;2023-06-10T09:02:58;20.55;;;10.88;;
43363;SDS011;40636;52.424;-1.948;2023-06-10T09:05:30;28.30;;;11.60;;
43363;SDS011;40636;52.424;-1.948;2023-06-10T09:08:00;21.38;;;11.02;;
43363;SDS011;40636;52.424;-1.948;2023-06-10T09:10:27;27.23;;;12.05;;
43363;SDS011;40636;52.424;-1.948;2023-06-10T09:12:54;29.67;;;11.27;;
43363;SDS011;40636;52.424;-1.948;2023-06-10T09:15:21;21.95;;;11.63;;
43363;SDS011;40636;52.424;-1.948;2023-06-10T09:17:48;20.17;;;11.50;;
43363;SDS011;40636;52.424;-1.948;2023-06-10T09:20:16;27.90;;;11.90;;
43363;SDS011;40636;52.424;-1.948;2023-06-10T09:22:43;26.70;;;11.98;;
43363;SDS011;40636;52.424;-1.948;2023-06-10T09:25:11;26.33;;;12.77;;
43363;SDS011;40636;52.424;-1.948;2023-06-10T09:30:29;19.77;;;10.38;;
43363;SDS011;40636;52.424;-1.948;2023-06-10T09:32:58;23.88;;;11.80;;
43363;SDS011;40636;52.424;-1.948;2023-06-10T09:35:28;19.58;;;10.43;;
43363;SDS011;40636;52.424;-1.948;2023-06-10T09:37:57;26.02;;;11.82;;
43363;SDS011;40636;52.424;-1.948;2023-06-10T09:40:25;21.20;;;12.48;;
43363;SDS011;40636;52.424;-1.948;2023-06-10T09:42:53;19.73;;;12.10;;
43363;SDS011;40636;52.424;-1.948;2023-06-10T09:45:31;24.05;;;10.85;;
43363;SDS011;40636;52.424;-1.948;2023-06-10T09:47:59;20.92;;;10.95;;
43363;SDS011;40636;52.424;-1.948;2023-06-10T09:50:27;22.50;;;11.30;;
43363;SDS011;40636;52.424;-1.948;2023-06-10T09:52:56;15.73;;;10.02;;
43363;SDS011;40636;52.424;-1.948;2023-06-10T09:55:23;18.85;;;11.18;;
43363;SDS011;40636;52.424;-1.948;2023-06-10T09:57:51;22.02;;;10.63;;
43363;SDS011;40636;52.424;-1.948;2023-06-10T10:00:20;16.98;;;11.23;;
43363;SDS011;40636;52.424;-1.948;2023-06-10T10:02:50;22.48;;;11.25;;
43363;SDS011;40636;52.424;-1.948;2023-06-10T10:05:19;24.60;;;10.40;;
43363;SDS011;40636;52.424;-1.948;2023-06-10T10:07:48;22.10;;;10.38;;
43363;SDS011;40636;52.424;-1.948;2023-06-10T10:10:17;19.58;;;10.35;;
43363;SDS011;40636;52.424;-1.948;2023-06-10T10:12:50;19.98;;;10.23;;
43363;SDS011;40636;52.424;-1.948;2023-06-10T10:15:23;19.92;;;9.30;;
43363;SDS011;40636;52.424;-1.948;2023-06-10T10:20:37;18.35;;;10.45;;
43363;SDS011;40636;52.424;-1.948;2023-06-10T10:23:13;14.05;;;9.30;;
43363;SDS011;40636;52.424;-1.948;2023-06-10T10:25:44;20.90;;;9.90;;
43363;SDS011;40636;52.424;-1.948;2023-06-10T10:28:18;19.85;;;10.60;;
43363;SDS011;40636;52.424;-1.948;2023-06-10T10:30:52;15.55;;;9.90;;
43363;SDS011;40636;52.424;-1.948;2023-06-10T10:33:30;20.27;;;10.57;;
43363;SDS011;40636;52.424;-1.948;2023-06-10T10:36:07;15.73;;;9.13;;
43363;SDS011;40636;52.424;-1.948;2023-06-10T10:38:34;17.65;;;9.23;;
43363;SDS011;40636;52.424;-1.948;2023-06-10T10:41:02;16.60;;;8.63;;
43363;SDS011;40636;52.424;-1.948;2023-06-10T10:43:30;17.48;;;8.23;;
43363;SDS011;40636;52.424;-1.948;2023-06-10T10:46:01;16.52;;;9.10;;
43363;SDS011;40636;52.424;-1.948;2023-06-10T10:48:33;16.15;;;9.35;;
43363;SDS011;40636;52.424;-1.948;2023-06-10T10:51:03;17.25;;;10.52;;
43363;SDS011;40636;52.424;-1.948;2023-06-10T10:53:30;19.42;;;9.30;;
43363;SDS011;40636;52.424;-1.948;2023-06-10T10:56:07;16.60;;;8.30;;
43363;SDS011;40636;52.424;-1.948;2023-06-10T10:58:40;15.95;;;7.88;;
43363;SDS011;40636;52.424;-1.948;2023-06-10T11:01:13;14.63;;;7.47;;
43363;SDS011;40636;52.424;-1.948;2023-06-10T11:03:44;12.05;;;7.32;;
43363;SDS011;40636;52.424;-1.948;2023-06-10T11:06:16;18.40;;;10.13;;
43363;SDS011;40636;52.424;-1.948;2023-06-10T11:16:28;12.98;;;7.80;;
43363;SDS011;40636;52.424;-1.948;2023-06-10T11:18:55;13.38;;;8.50;;
43363;SDS011;40636;52.424;-1.948;2023-06-10T11:21:23;11.20;;;7.07;;
43363;SDS011;40636;52.424;-1.948;2023-06-10T11:23:57;17.55;;;8.70;;
43363;SDS011;40636;52.424;-1.948;2023-06-10T11:31:26;12.85;;;6.93;;
43363;SDS011;40636;52.424;-1.948;2023-06-10T11:34:04;16.67;;;7.95;;
43363;SDS011;40636;52.424;-1.948;2023-06-10T11:36:33;15.18;;;7.63;;
43363;SDS011;40636;52.424;-1.948;2023-06-10T11:39:04;17.70;;;7.95;;
43363;SDS011;40636;52.424;-1.948;2023-06-10T11:41:32;12.85;;;7.57;;
43363;SDS011;40636;52.424;-1.948;2023-06-10T11:44:04;12.15;;;7.63;;
43363;SDS011;40636;52.424;-1.948;2023-06-10T11:46:34;14.10;;;6.95;;
43363;SDS011;40636;52.424;-1.948;2023-06-10T11:49:02;12.35;;;6.88;;
43363;SDS011;40636;52.424;-1.948;2023-06-10T11:51:35;13.95;;;7.75;;
43363;SDS011;40636;52.424;-1.948;2023-06-10T11:54:05;14.05;;;7.57;;
43363;SDS011;40636;52.424;-1.948;2023-06-10T11:56:34;9.65;;;6.60;;
43363;SDS011;40636;52.424;-1.948;2023-06-10T11:59:02;14.70;;;6.80;;
43363;SDS011;40636;52.424;-1.948;2023-06-10T12:01:32;11.93;;;7.00;;
43363;SDS011;40636;52.424;-1.948;2023-06-10T12:04:04;13.50;;;7.20;;
43363;SDS011;40636;52.424;-1.948;2023-06-10T12:06:41;12.15;;;6.15;;
43363;SDS011;40636;52.424;-1.948;2023-06-10T12:09:28;11.65;;;7.15;;
43363;SDS011;40636;52.424;-1.948;2023-06-10T12:12:02;12.95;;;7.20;;
43363;SDS011;40636;52.424;-1.948;2023-06-10T12:17:19;13.80;;;7.15;;
43363;SDS011;40636;52.424;-1.948;2023-06-10T12:19:51;10.60;;;6.30;;
43363;SDS011;40636;52.424;-1.948;2023-06-10T12:22:18;13.65;;;7.93;;
43363;SDS011;40636;52.424;-1.948;2023-06-10T12:24:56;15.00;;;6.63;;
43363;SDS011;40636;52.424;-1.948;2023-06-10T12:27:26;13.85;;;6.35;;
43363;SDS011;40636;52.424;-1.948;2023-06-10T12:29:55;13.43;;;6.78;;
43363;SDS011;40636;52.424;-1.948;2023-06-10T12:32:22;14.52;;;6.57;;
43363;SDS011;40636;52.424;-1.948;2023-06-10T12:35:04;11.98;;;6.75;;
43363;SDS011;40636;52.424;-1.948;2023-06-10T12:37:33;13.57;;;6.70;;
43363;SDS011;40636;52.424;-1.948;2023-06-10T12:40:00;11.25;;;7.10;;
43363;SDS011;40636;52.424;-1.948;2023-06-10T12:42:46;10.10;;;6.75;;
43363;SDS011;40636;52.424;-1.948;2023-06-10T12:45:15;12.95;;;6.25;;
43363;SDS011;40636;52.424;-1.948;2023-06-10T12:48:09;13.75;;;6.38;;
43363;SDS011;40636;52.424;-1.948;2023-06-10T12:50:41;11.80;;;7.03;;
43363;SDS011;40636;52.424;-1.948;2023-06-10T12:53:08;10.98;;;5.60;;
43363;SDS011;40636;52.424;-1.948;2023-06-10T12:55:37;12.52;;;6.20;;
43363;SDS011;40636;52.424;-1.948;2023-06-10T12:58:05;9.15;;;6.38;;
43363;SDS011;40636;52.424;-1.948;2023-06-10T13:00:32;11.65;;;5.88;;
43363;SDS011;40636;52.424;-1.948;2023-06-10T13:03:01;12.75;;;6.50;;
43363;SDS011;40636;52.424;-1.948;2023-06-10T13:05:29;16.08;;;6.93;;
43363;SDS011;40636;52.424;-1.948;2023-06-10T13:07:56;7.38;;;5.75;;
43363;SDS011;40636;52.424;-1.948;2023-06-10T13:10:24;10.27;;;5.65;;
43363;SDS011;40636;52.424;-1.948;2023-06-10T13:12:52;14.40;;;6.63;;
43363;SDS011;40636;52.424;-1.948;2023-06-10T13:15:21;7.32;;;5.95;;
43363;SDS011;40636;52.424;-1.948;2023-06-10T13:17:49;8.00;;;5.50;;
43363;SDS011;40636;52.424;-1.948;2023-06-10T13:20:18;10.25;;;5.95;;
43363;SDS011;40636;52.424;-1.948;2023-06-10T13:22:45;7.68;;;5.53;;
43363;SDS011;40636;52.424;-1.948;2023-06-10T13:25:14;10.77;;;6.63;;
43363;SDS011;40636;52.424;-1.948;2023-06-10T13:27:41;8.02;;;5.05;;
43363;SDS011;40636;52.424;-1.948;2023-06-10T13:30:09;8.85;;;5.55;;
43363;SDS011;40636;52.424;-1.948;2023-06-10T13:32:37;10.60;;;6.15;;
43363;SDS011;40636;52.424;-1.948;2023-06-10T13:35:04;9.90;;;5.53;;
43363;SDS011;40636;52.424;-1.948;2023-06-10T13:37:32;9.10;;;6.32;;
43363;SDS011;40636;52.424;-1.948;2023-06-10T13:40:00;6.63;;;4.97;;
43363;SDS011;40636;52.424;-1.948;2023-06-10T13:42:29;12.55;;;5.70;;
43363;SDS011;40636;52.424;-1.948;2023-06-10T13:44:56;11.15;;;5.60;;
43363;SDS011;40636;52.424;-1.948;2023-06-10T13:47:23;9.45;;;6.25;;
43363;SDS011;40636;52.424;-1.948;2023-06-10T13:49:51;12.60;;;5.72;;
43363;SDS011;40636;52.424;-1.948;2023-06-10T13:52:18;8.57;;;6.07;;
43363;SDS011;40636;52.424;-1.948;2023-06-10T13:54:45;7.90;;;6.13;;
43363;SDS011;40636;52.424;-1.948;2023-06-10T13:57:12;7.60;;;5.43;;
43363;SDS011;40636;52.424;-1.948;2023-06-10T13:59:38;8.40;;;5.03;;
43363;SDS011;40636;52.424;-1.948;2023-06-10T14:02:05;10.70;;;5.95;;
43363;SDS011;40636;52.424;-1.948;2023-06-10T14:04:32;8.00;;;5.35;;
43363;SDS011;40636;52.424;-1.948;2023-06-10T14:06:59;9.77;;;5.43;;
43363;SDS011;40636;52.424;-1.948;2023-06-10T14:09:27;9.13;;;5.05;;
43363;SDS011;40636;52.424;-1.948;2023-06-10T14:11:54;7.57;;;5.30;;
43363;SDS011;40636;52.424;-1.948;2023-06-10T14:14:21;9.75;;;6.03;;
43363;SDS011;40636;52.424;-1.948;2023-06-10T14:16:51;6.13;;;4.95;;
43363;SDS011;40636;52.424;-1.948;2023-06-10T14:19:18;8.98;;;6.03;;
43363;SDS011;40636;52.424;-1.948;2023-06-10T14:21:45;8.88;;;5.93;;
43363;SDS011;40636;52.424;-1.948;2023-06-10T14:24:13;9.25;;;5.60;;
43363;SDS011;40636;52.424;-1.948;2023-06-10T14:26:40;10.45;;;5.25;;
43363;SDS011;40636;52.424;-1.948;2023-06-10T14:29:07;6.60;;;5.32;;
43363;SDS011;40636;52.424;-1.948;2023-06-10T14:31:35;13.70;;;6.75;;
43363;SDS011;40636;52.424;-1.948;2023-06-10T14:34:02;9.50;;;5.65;;
43363;SDS011;40636;52.424;-1.948;2023-06-10T14:36:29;9.23;;;5.88;;
43363;SDS011;40636;52.424;-1.948;2023-06-10T14:38:59;8.20;;;5.43;;
43363;SDS011;40636;52.424;-1.948;2023-06-10T14:41:26;8.50;;;5.82;;
43363;SDS011;40636;52.424;-1.948;2023-06-10T14:43:52;8.43;;;6.28;;
43363;SDS011;40636;52.424;-1.948;2023-06-10T14:46:19;6.22;;;5.22;;
43363;SDS011;40636;52.424;-1.948;2023-06-10T14:48:47;7.28;;;5.60;;
43363;SDS011;40636;52.424;-1.948;2023-06-10T14:51:15;5.55;;;4.70;;
43363;SDS011;40636;52.424;-1.948;2023-06-10T14:53:42;7.30;;;6.00;;